createdAt,value
2019-01-18T00:02:25.919Z,-0.24
2019-01-18T00:04:57.686Z,-0.26
2019-01-18T00:07:29.623Z,-0.50
2019-01-18T00:10:01.534Z,-0.28
2019-01-18T00:12:34.469Z,-0.22
2019-01-18T00:15:08.000Z,-0.26
2019-01-18T00:17:39.854Z,-0.29
2019-01-18T00:20:12.197Z,-0.36
2019-01-18T00:22:44.118Z,-0.53
2019-01-18T00:25:16.039Z,-0.31
2019-01-18T00:27:47.962Z,-0.42
2019-01-18T00:30:19.868Z,-0.55
2019-01-18T00:32:51.980Z,-0.56
2019-01-18T00:35:23.977Z,-0.51
2019-01-18T00:37:55.822Z,-0.51
2019-01-18T00:40:27.724Z,-0.45
2019-01-18T00:42:59.518Z,-0.47
2019-01-18T00:45:31.288Z,-0.43
2019-01-18T00:48:03.141Z,-0.46
2019-01-18T00:50:34.905Z,-0.49
2019-01-18T00:53:06.805Z,-0.51
2019-01-18T00:55:38.783Z,-0.57
2019-01-18T00:58:10.633Z,-0.59
2019-01-18T01:00:42.534Z,-0.63
2019-01-18T01:03:14.393Z,-0.62
2019-01-18T01:05:46.319Z,-0.64
2019-01-18T01:08:18.315Z,-0.67
2019-01-18T01:10:50.309Z,-0.83
2019-01-18T01:13:22.238Z,-0.84
2019-01-18T01:15:54.397Z,-0.54
2019-01-18T01:18:26.329Z,-0.60
2019-01-18T01:20:58.490Z,-0.58
2019-01-18T01:23:30.331Z,-0.61
2019-01-18T01:26:02.343Z,-0.52
2019-01-18T01:28:34.258Z,-0.57
2019-01-18T01:31:06.162Z,-0.67
2019-01-18T01:33:38.120Z,-0.62
2019-01-18T01:36:10.033Z,-0.68
2019-01-18T01:38:41.957Z,-0.52
2019-01-18T01:41:13.716Z,-0.73
2019-01-18T01:43:45.631Z,-0.49
2019-01-18T01:46:17.396Z,-0.59
2019-01-18T01:48:49.231Z,-0.53
2019-01-18T01:51:21.059Z,-0.55
2019-01-18T01:53:52.909Z,-0.62
2019-01-18T01:56:24.648Z,-0.65
2019-01-18T01:58:56.427Z,-0.72
2019-01-18T02:01:28.276Z,-0.64
2019-01-18T02:04:00.211Z,-0.66
2019-01-18T02:06:32.317Z,-0.70
2019-01-18T02:09:04.913Z,-0.89
2019-01-18T02:11:37.103Z,-0.71
2019-01-18T02:14:09.968Z,-0.65
2019-01-18T02:16:42.054Z,-0.75
2019-01-18T02:19:13.897Z,-0.60
2019-01-18T02:21:45.789Z,-0.66
2019-01-18T02:24:17.697Z,-0.59
2019-01-18T02:26:49.873Z,-0.62
2019-01-18T02:29:21.641Z,-0.89
2019-01-18T02:31:53.816Z,-0.75
2019-01-18T02:34:25.661Z,-0.69
2019-01-18T02:36:57.559Z,-0.65
2019-01-18T02:39:29.510Z,-0.72
2019-01-18T02:42:01.674Z,-0.73
2019-01-18T02:44:33.782Z,-0.69
2019-01-18T02:47:05.810Z,-0.68
2019-01-18T02:49:37.945Z,-0.70
2019-01-18T02:52:10.355Z,-1.01
2019-01-18T02:54:42.267Z,-0.81
2019-01-18T02:57:14.019Z,-0.71
2019-01-18T02:59:45.806Z,-0.70
2019-01-18T03:02:17.571Z,-0.76
2019-01-18T03:04:49.492Z,-0.88
2019-01-18T03:07:21.414Z,-0.82
2019-01-18T03:09:53.400Z,-0.87
2019-01-18T03:12:25.297Z,-0.86
2019-01-18T03:14:57.210Z,-0.95
2019-01-18T03:17:29.104Z,-0.76
2019-01-18T03:20:01.190Z,-0.82
2019-01-18T03:22:33.090Z,-0.77
2019-01-18T03:25:06.055Z,-0.81
2019-01-18T03:27:37.953Z,-0.99
2019-01-18T03:30:18.688Z,-0.78
2019-01-18T03:32:47.943Z,-0.91
2019-01-18T03:35:22.012Z,-0.82
2019-01-18T03:37:54.875Z,-0.91
2019-01-18T03:40:26.811Z,-0.81
2019-01-18T03:42:58.719Z,-0.79
2019-01-18T03:45:30.643Z,-0.79
2019-01-18T03:48:02.383Z,-0.87
2019-01-18T03:50:34.669Z,-0.80
2019-01-18T03:53:06.660Z,-0.84
2019-01-18T03:55:38.488Z,-0.83
2019-01-18T03:58:10.460Z,-0.84
2019-01-18T04:00:42.310Z,-0.87
2019-01-18T04:03:14.228Z,-0.96
2019-01-18T04:05:46.134Z,-0.88
2019-01-18T04:08:18.302Z,-0.97
2019-01-18T04:10:50.139Z,-0.85
2019-01-18T04:13:22.028Z,-0.86
2019-01-18T04:15:53.914Z,-0.90
2019-01-18T04:18:25.879Z,-0.87
2019-01-18T04:20:57.785Z,-1.21
2019-01-18T04:23:29.997Z,-0.87
2019-01-18T04:26:02.021Z,-0.82
2019-01-18T04:28:33.988Z,-0.87
2019-01-18T04:31:06.049Z,-0.82
2019-01-18T04:33:38.087Z,-0.84
2019-01-18T04:36:10.071Z,-0.89
2019-01-18T04:38:42.086Z,-0.82
2019-01-18T04:41:14.489Z,-0.95
2019-01-18T04:43:46.355Z,-0.91
2019-01-18T04:46:18.277Z,-0.95
2019-01-18T04:48:50.371Z,-1.01
2019-01-18T04:51:22.284Z,-0.87
2019-01-18T04:53:54.283Z,-0.88
2019-01-18T04:56:26.316Z,-0.86
2019-01-18T04:58:58.423Z,-0.87
2019-01-18T05:01:30.672Z,-0.85
2019-01-18T05:04:02.729Z,-0.85
2019-01-18T05:06:34.778Z,-0.89
2019-01-18T05:09:08.456Z,-0.97
2019-01-18T05:11:40.301Z,-0.99
2019-01-18T05:14:12.207Z,-1.20
2019-01-18T05:16:44.249Z,-1.04
2019-01-18T05:19:16.071Z,-0.97
2019-01-18T05:21:47.917Z,-1.01
2019-01-18T05:24:19.819Z,-1.01
2019-01-18T05:26:51.618Z,-1.06
2019-01-18T05:29:23.455Z,-1.06
2019-01-18T05:31:55.328Z,-1.28
2019-01-18T05:34:27.247Z,-1.17
2019-01-18T05:36:59.097Z,-1.18
2019-01-18T05:39:31.123Z,-1.44
2019-01-18T05:42:02.970Z,-1.13
2019-01-18T05:44:34.736Z,-1.22
2019-01-18T05:47:06.906Z,-1.22
2019-01-18T05:49:38.741Z,-1.16
2019-01-18T05:52:10.734Z,-1.04
2019-01-18T05:54:42.548Z,-1.07
2019-01-18T05:57:14.383Z,-1.02
2019-01-18T05:59:46.260Z,-1.02
2019-01-18T06:02:18.187Z,-1.04
2019-01-18T06:04:51.155Z,-1.11
2019-01-18T06:07:23.000Z,-1.03
2019-01-18T06:09:54.832Z,-1.03
2019-01-18T06:12:26.677Z,-1.07
2019-01-18T06:14:58.517Z,-1.06
2019-01-18T06:17:30.542Z,-1.06
2019-01-18T06:20:06.466Z,-1.06
2019-01-18T06:22:38.226Z,-1.09
2019-01-18T06:25:10.167Z,-1.16
2019-01-18T06:27:42.062Z,-1.16
2019-01-18T06:30:16.172Z,-1.03
2019-01-18T06:32:49.058Z,-1.10
2019-01-18T06:35:31.498Z,-1.03
2019-01-18T06:38:03.586Z,-1.03
2019-01-18T06:40:35.803Z,-1.07
2019-01-18T06:43:07.646Z,-1.02
2019-01-18T06:45:39.982Z,-1.15
2019-01-18T06:48:13.555Z,-1.15
2019-01-18T06:50:45.316Z,-1.06
2019-01-18T06:53:17.574Z,-1.04
2019-01-18T06:55:49.481Z,-1.05
2019-01-18T06:58:21.415Z,-1.08
2019-01-18T07:00:53.323Z,-1.11
2019-01-18T07:03:25.483Z,-1.27
2019-01-18T07:05:57.423Z,-1.22
2019-01-18T07:08:29.276Z,-1.22
2019-01-18T07:11:01.184Z,-1.21
2019-01-18T07:13:33.280Z,-1.19
2019-01-18T07:16:05.115Z,-1.14
2019-01-18T07:18:37.018Z,-1.12
2019-01-18T07:21:10.072Z,-1.16
2019-01-18T07:23:42.012Z,-1.26
2019-01-18T07:26:14.110Z,-1.14
2019-01-18T07:28:46.138Z,-1.11
2019-01-18T07:31:17.979Z,-1.04
2019-01-18T07:33:50.084Z,-1.03
2019-01-18T07:36:21.994Z,-1.17
2019-01-18T07:39:00.382Z,-1.10
2019-01-18T07:41:27.611Z,-1.06
2019-01-18T07:43:59.456Z,-0.89
2019-01-18T07:46:31.402Z,-1.00
2019-01-18T07:49:03.522Z,-0.92
2019-01-18T07:51:35.484Z,-0.94
2019-01-18T07:54:07.359Z,-1.02
2019-01-18T07:56:39.281Z,-0.96
2019-01-18T07:59:11.206Z,-0.80
2019-01-18T08:01:43.057Z,-0.76
2019-01-18T08:04:14.823Z,-0.77
2019-01-18T08:06:46.810Z,-0.86
2019-01-18T08:09:18.986Z,-0.95
2019-01-18T08:11:51.017Z,-0.75
2019-01-18T08:14:22.857Z,-0.87
2019-01-18T08:16:54.706Z,-0.95
2019-01-18T08:19:26.555Z,-0.78
2019-01-18T08:21:58.928Z,-0.79
2019-01-18T08:24:30.836Z,-0.80
2019-01-18T08:27:03.514Z,-0.84
2019-01-18T08:29:35.426Z,-0.79
2019-01-18T08:32:07.329Z,-0.76
2019-01-18T08:34:39.331Z,-0.90
2019-01-18T08:37:11.175Z,-0.92
2019-01-18T08:39:43.055Z,-0.81
2019-01-18T08:42:14.972Z,-0.73
2019-01-18T08:44:46.808Z,-0.56
2019-01-18T08:47:18.725Z,-0.51
2019-01-18T08:49:50.828Z,-0.58
2019-01-18T08:52:22.669Z,-0.58
2019-01-18T08:54:54.579Z,-0.59
2019-01-18T08:57:26.426Z,-0.82
2019-01-18T08:59:58.196Z,-0.83
2019-01-18T09:02:30.039Z,-0.60
2019-01-18T09:05:01.888Z,-0.67
2019-01-18T09:07:33.998Z,-0.70
2019-01-18T09:10:08.092Z,-0.80
2019-01-18T09:12:41.428Z,-0.73
2019-01-18T09:15:13.872Z,-0.72
2019-01-18T09:17:45.771Z,-0.80
2019-01-18T09:20:20.986Z,-0.74
2019-01-18T09:22:52.976Z,-0.65
2019-01-18T09:25:24.974Z,-0.65
2019-01-18T09:27:56.973Z,-0.73
2019-01-18T09:30:33.327Z,-0.75
2019-01-18T09:33:08.377Z,-0.75
2019-01-18T09:35:41.426Z,-0.79
2019-01-18T09:38:17.940Z,-0.76
2019-01-18T09:40:49.679Z,-0.71
2019-01-18T09:43:21.442Z,-0.80
2019-01-18T09:45:53.361Z,-0.84
2019-01-18T09:48:25.182Z,-0.81
2019-01-18T09:50:57.025Z,-0.51
2019-01-18T09:53:29.035Z,-0.60
2019-01-18T09:56:00.875Z,-0.50
2019-01-18T09:58:32.771Z,-0.59
2019-01-18T10:01:04.786Z,-0.56
2019-01-18T10:03:36.702Z,-0.44
2019-01-18T10:06:09.701Z,-0.42
2019-01-18T10:08:41.501Z,-0.32
2019-01-18T10:11:13.315Z,-0.39
2019-01-18T10:13:45.212Z,-0.36
2019-01-18T10:16:17.174Z,-0.27
2019-01-18T10:18:49.008Z,-0.24
2019-01-18T10:21:20.912Z,-0.27
2019-01-18T10:23:52.731Z,-0.17
2019-01-18T10:26:24.481Z,0.09
2019-01-18T10:28:56.624Z,0.04
2019-01-18T10:31:28.459Z,-0.01
2019-01-18T10:34:00.276Z,-0.01
2019-01-18T10:36:32.244Z,-0.23
2019-01-18T10:39:06.511Z,-0.14
2019-01-18T10:41:38.390Z,0.00
2019-01-18T10:44:10.281Z,-0.17
2019-01-18T10:46:42.170Z,-0.09
2019-01-18T10:49:13.904Z,0.08
2019-01-18T10:51:45.662Z,-0.07
2019-01-18T10:54:17.480Z,-0.15
2019-01-18T10:56:49.233Z,-0.22
2019-01-18T10:59:20.975Z,-0.14
2019-01-18T11:01:52.815Z,0.05
2019-01-18T11:04:24.626Z,0.12
2019-01-18T11:06:56.371Z,0.01
2019-01-18T11:09:28.355Z,0.05
2019-01-18T11:12:00.191Z,-0.04
2019-01-18T11:14:32.000Z,0.08
2019-01-18T11:17:04.016Z,0.29
2019-01-18T11:19:35.914Z,0.60
2019-01-18T11:22:07.833Z,0.93
2019-01-18T11:24:39.640Z,1.34
2019-01-18T11:27:11.732Z,1.55
2019-01-18T11:29:43.471Z,2.04
2019-01-18T11:32:15.637Z,2.08
2019-01-18T11:34:47.514Z,2.32
2019-01-18T11:37:19.491Z,1.93
2019-01-18T11:39:51.301Z,1.69
2019-01-18T11:42:23.124Z,1.69
2019-01-18T11:44:54.941Z,1.54
2019-01-18T11:47:28.386Z,1.36
2019-01-18T11:50:00.362Z,1.15
2019-01-18T11:52:32.253Z,1.14
2019-01-18T11:55:04.069Z,1.08
2019-01-18T11:57:35.877Z,0.99
2019-01-18T12:00:12.729Z,1.01
2019-01-18T12:02:44.528Z,1.14
2019-01-18T12:05:17.062Z,0.96
2019-01-18T12:07:49.179Z,0.94
2019-01-18T12:10:24.338Z,0.74
2019-01-18T12:12:56.108Z,0.63
2019-01-18T12:15:28.398Z,0.49
2019-01-18T12:18:00.235Z,0.76
2019-01-18T12:20:35.294Z,1.10
2019-01-18T12:23:07.934Z,1.39
2019-01-18T12:25:39.825Z,1.95
2019-01-18T12:28:11.834Z,2.31
2019-01-18T12:30:43.803Z,2.56
2019-01-18T12:33:15.713Z,2.77
2019-01-18T12:35:47.599Z,3.39
2019-01-18T12:38:19.683Z,3.46
2019-01-18T12:40:51.869Z,3.57
2019-01-18T12:43:23.788Z,3.69
2019-01-18T12:45:55.613Z,4.08
2019-01-18T12:48:27.512Z,3.70
2019-01-18T12:50:59.402Z,3.45
2019-01-18T12:53:31.230Z,3.12
2019-01-18T12:56:02.989Z,2.75
2019-01-18T12:58:34.893Z,2.76
2019-01-18T13:01:06.963Z,2.27
2019-01-18T13:03:38.813Z,2.32
2019-01-18T13:06:10.699Z,2.29
2019-01-18T13:08:42.455Z,2.20
2019-01-18T13:11:15.325Z,2.35
2019-01-18T13:13:47.170Z,2.43
2019-01-18T13:16:36.318Z,2.14
2019-01-18T13:19:20.263Z,2.50
2019-01-18T13:21:52.166Z,2.87
2019-01-18T13:24:23.993Z,3.05
2019-01-18T13:26:55.883Z,3.39
2019-01-18T13:29:27.780Z,3.50
2019-01-18T13:31:59.867Z,2.93
2019-01-18T13:34:31.769Z,2.78
2019-01-18T13:37:03.655Z,2.85
2019-01-18T13:39:35.516Z,3.06
2019-01-18T13:42:07.509Z,3.22
2019-01-18T13:44:43.512Z,3.41
2019-01-18T13:47:18.278Z,3.56
2019-01-18T13:49:46.612Z,3.96
2019-01-18T13:52:18.529Z,3.94
2019-01-18T13:54:50.339Z,3.41
2019-01-18T13:57:22.229Z,3.09
2019-01-18T13:59:54.134Z,3.05
2019-01-18T14:02:25.945Z,3.08
2019-01-18T14:04:57.681Z,2.80
2019-01-18T14:07:29.559Z,2.68
2019-01-18T14:10:01.458Z,2.52
2019-01-18T14:12:33.332Z,2.66
2019-01-18T14:15:05.837Z,2.43
2019-01-18T14:17:37.668Z,2.75
2019-01-18T14:20:13.150Z,2.91
2019-01-18T14:22:45.117Z,3.37
2019-01-18T14:25:17.102Z,3.55
2019-01-18T14:27:49.065Z,3.84
2019-01-18T14:30:25.687Z,3.94
2019-01-18T14:32:57.829Z,3.69
2019-01-18T14:35:29.897Z,3.93
2019-01-18T14:38:02.070Z,3.79
2019-01-18T14:40:33.988Z,4.02
2019-01-18T14:43:05.888Z,3.76
2019-01-18T14:45:40.931Z,3.48
2019-01-18T14:48:12.847Z,3.13
2019-01-18T14:50:44.829Z,3.14
2019-01-18T14:53:16.741Z,3.09
2019-01-18T14:55:48.842Z,3.00
2019-01-18T14:58:24.571Z,2.87
2019-01-18T15:00:54.354Z,2.66
2019-01-18T15:03:26.334Z,2.59
2019-01-18T15:05:58.162Z,2.37
2019-01-18T15:08:30.001Z,2.51
2019-01-18T15:11:01.741Z,3.01
2019-01-18T15:13:33.680Z,3.43
2019-01-18T15:16:06.081Z,3.79
2019-01-18T15:18:38.992Z,3.56
2019-01-18T15:21:10.825Z,3.20
2019-01-18T15:23:42.655Z,2.90
2019-01-18T15:26:18.416Z,2.44
2019-01-18T15:28:48.273Z,2.33
2019-01-18T15:31:20.096Z,2.25
2019-01-18T15:33:51.930Z,2.25
2019-01-18T15:36:23.826Z,2.09
2019-01-18T15:38:56.009Z,2.07
2019-01-18T15:41:27.975Z,1.83
2019-01-18T15:43:59.829Z,1.81
2019-01-18T15:46:31.667Z,1.80
2019-01-18T15:49:03.509Z,1.65
2019-01-18T15:51:35.417Z,1.45
2019-01-18T15:54:07.257Z,1.44
2019-01-18T15:56:39.432Z,1.33
2019-01-18T15:59:11.336Z,1.27
2019-01-18T16:01:43.179Z,1.15
2019-01-18T16:04:14.939Z,1.10
2019-01-18T16:06:46.761Z,0.93
2019-01-18T16:09:18.589Z,0.93
2019-01-18T16:11:50.327Z,0.77
2019-01-18T16:14:22.159Z,0.48
2019-01-18T16:17:00.975Z,0.54
2019-01-18T16:19:32.798Z,0.48
2019-01-18T16:22:04.693Z,0.44
2019-01-18T16:24:36.541Z,0.45
2019-01-18T16:27:09.373Z,0.37
2019-01-18T16:29:41.269Z,0.24
2019-01-18T16:32:13.482Z,0.11
2019-01-18T16:34:45.371Z,-0.05
2019-01-18T16:37:17.275Z,-0.09
2019-01-18T16:39:49.109Z,-0.12
2019-01-18T16:42:22.499Z,-0.12
2019-01-18T16:44:54.650Z,-0.23
2019-01-18T16:47:26.497Z,-0.27
2019-01-18T16:49:58.274Z,-0.40
2019-01-18T16:52:30.175Z,-0.32
2019-01-18T16:55:02.092Z,-0.21
2019-01-18T16:57:33.909Z,-0.37
2019-01-18T17:00:14.032Z,-0.32
2019-01-18T17:02:46.190Z,-0.21
2019-01-18T17:05:18.191Z,-0.28
2019-01-18T17:07:49.939Z,-0.42
2019-01-18T17:10:22.058Z,-0.44
2019-01-18T17:12:54.052Z,-0.49
2019-01-18T17:15:25.823Z,-0.58
2019-01-18T17:17:57.635Z,-0.66
2019-01-18T17:20:32.972Z,-0.76
2019-01-18T17:23:04.877Z,-0.78
2019-01-18T17:25:37.276Z,-0.80
2019-01-18T17:28:10.116Z,-0.85
2019-01-18T17:30:42.028Z,-0.90
2019-01-18T17:33:14.172Z,-0.96
2019-01-18T17:36:32.962Z,-0.99
2019-01-18T17:39:39.014Z,-1.04
2019-01-18T17:42:58.962Z,-1.31
2019-01-18T17:45:59.538Z,-1.19
2019-01-18T17:49:12.730Z,-1.24
2019-01-18T17:52:32.772Z,-1.14
2019-01-18T17:56:00.263Z,-1.12
2019-01-18T17:59:41.184Z,-1.15
2019-01-18T18:03:10.673Z,-1.16
2019-01-18T18:06:30.490Z,-1.21
2019-01-18T18:09:42.086Z,-1.14
2019-01-18T18:13:01.454Z,-1.27
2019-01-18T18:16:15.863Z,-1.28
2019-01-18T18:19:43.925Z,-1.34
2019-01-18T18:22:56.772Z,-1.50
2019-01-18T18:26:23.112Z,-1.64
2019-01-18T18:29:51.025Z,-1.65
2019-01-18T18:33:11.580Z,-1.60
2019-01-18T18:36:18.434Z,-1.65
2019-01-18T18:39:34.435Z,-1.71
2019-01-18T18:43:18.914Z,-1.69
2019-01-18T18:47:07.576Z,-1.73
2019-01-18T18:50:35.870Z,-1.77
2019-01-18T18:54:14.158Z,-1.83
2019-01-18T18:58:01.668Z,-1.88
2019-01-18T19:01:40.270Z,-1.88
2019-01-18T19:04:53.993Z,-1.90
2019-01-18T19:08:29.084Z,-1.89
2019-01-18T19:11:33.652Z,-1.92
2019-01-18T19:14:48.662Z,-1.95
2019-01-18T19:18:10.277Z,-1.95
2019-01-18T19:21:48.204Z,-1.93
2019-01-18T19:25:08.203Z,-2.07
2019-01-18T19:28:43.094Z,-2.06
2019-01-18T19:32:33.564Z,-2.09
2019-01-18T19:36:08.862Z,-1.93
2019-01-18T19:39:28.615Z,-1.54
2019-01-18T19:42:42.845Z,-1.58
2019-01-18T19:45:52.902Z,-1.27
2019-01-18T19:49:30.702Z,-1.32
2019-01-18T19:52:44.699Z,-1.30
2019-01-18T19:56:00.536Z,-1.29
2019-01-18T19:59:14.318Z,-1.47
2019-01-18T20:02:54.314Z,-1.78
2019-01-18T20:06:12.517Z,-1.89
2019-01-18T20:09:40.724Z,-2.07
2019-01-18T20:13:14.039Z,-2.09
2019-01-18T20:19:53.951Z,-2.29
2019-01-18T20:23:06.255Z,-2.23
2019-01-18T20:26:03.154Z,-2.31
2019-01-18T20:29:35.324Z,-2.06
2019-01-18T20:33:09.069Z,-2.17
2019-01-18T20:36:10.139Z,-1.96
2019-01-18T20:39:43.633Z,-2.17
2019-01-18T20:43:03.680Z,-2.08
2019-01-18T20:46:22.175Z,-1.81
2019-01-18T20:49:53.573Z,-1.78
2019-01-18T20:53:06.602Z,-1.70
2019-01-18T20:56:19.400Z,-1.68
2019-01-18T20:59:27.225Z,-1.81
2019-01-18T21:02:52.421Z,-1.88
2019-01-18T21:05:37.439Z,-1.96
2019-01-18T21:08:37.759Z,-1.97
2019-01-18T21:11:34.472Z,-1.91
2019-01-18T21:14:59.933Z,-1.87
2019-01-18T21:18:44.711Z,-1.79
2019-01-18T21:22:07.109Z,-1.94
2019-01-18T21:25:29.066Z,-1.85
2019-01-18T21:29:13.829Z,-1.95
2019-01-18T21:32:10.455Z,-1.92
2019-01-18T21:35:26.115Z,-1.86
2019-01-18T21:38:45.477Z,-1.80
2019-01-18T21:42:17.247Z,-1.81
2019-01-18T21:45:36.053Z,-1.76
2019-01-18T21:49:05.817Z,-1.84
2019-01-18T21:52:24.602Z,-1.96
2019-01-18T21:55:30.796Z,-1.88
2019-01-18T21:58:42.293Z,-1.86
2019-01-18T22:01:59.685Z,-1.91
2019-01-18T22:05:33.510Z,-2.05
2019-01-18T22:08:45.155Z,-2.07
2019-01-18T22:12:22.110Z,-2.18
2019-01-18T22:16:20.989Z,-2.12
2019-01-18T22:20:22.022Z,-1.95
2019-01-18T22:23:14.962Z,-1.98
2019-01-18T22:26:41.861Z,-2.13
2019-01-18T22:30:06.373Z,-2.15
2019-01-18T22:33:30.033Z,-2.36
2019-01-18T22:37:00.703Z,-2.25
2019-01-18T22:40:29.998Z,-2.13
2019-01-18T22:43:31.760Z,-2.49
2019-01-18T22:47:05.190Z,-2.51
2019-01-18T22:50:00.355Z,-2.55
2019-01-18T22:53:25.669Z,-2.60
2019-01-18T22:56:38.095Z,-2.73
2019-01-18T23:00:00.309Z,-2.77
2019-01-18T23:03:17.619Z,-2.82
2019-01-18T23:06:43.560Z,-2.73
2019-01-18T23:09:52.067Z,-2.69
2019-01-18T23:13:34.252Z,-2.66
2019-01-18T23:17:05.644Z,-2.78
2019-01-18T23:20:29.380Z,-2.87
2019-01-18T23:23:57.917Z,-2.87
2019-01-18T23:27:21.083Z,-2.88
2019-01-18T23:30:27.861Z,-2.93
2019-01-18T23:33:26.955Z,-3.02
2019-01-18T23:36:44.772Z,-3.06
2019-01-18T23:39:53.399Z,-3.10
2019-01-18T23:43:00.195Z,-3.11
2019-01-18T23:46:14.033Z,-3.19
2019-01-18T23:49:12.137Z,-3.30
2019-01-18T23:53:05.173Z,-3.35
2019-01-18T23:56:41.664Z,-3.39
